Time;durP1;ratioP1;P1;durP2;ratioP2;P2;SDS_P1;SDS_P2;PMS_P1;PMS_P2;Temp;Humidity;BMP_temperature;BMP_pressure;BME280_temperature;BME280_humidity;BME280_pressure;Samples;Min_cycle;Max_cycle;Signal;HPM_P1;HPM_P2
2023/01/27 00:01:50;;;;;;;23.17;14.47;;;;;;;41.76;38.17;100799.03;6123495;23;20158;-86
2023/01/27 00:04:16;;;;;;;22.17;14.40;;;;;;;41.81;38.18;100787.13;6124025;23;20469;-87
2023/01/27 00:06:43;;;;;;;23.23;15.90;;;;;;;41.85;38.16;100782.59;6124032;23;20417;-90
2023/01/27 00:09:10;;;;;;;25.23;14.77;;;;;;;41.78;38.42;100790.50;6123928;23;20390;-88
2023/01/27 00:14:20;;;;;;;29.80;16.67;;;;;;;41.74;38.62;100778.66;6125539;23;20374;-91
2023/01/27 00:16:50;;;;;;;20.87;13.83;;;;;;;41.69;38.59;100785.13;6147936;23;20898;-91
2023/01/27 00:19:18;;;;;;;23.67;14.27;;;;;;;41.66;38.51;100782.25;6160922;23;20434;-92
2023/01/27 00:28:41;;;;;;;26.03;13.50;;;;;;;41.78;38.50;100774.97;6199603;23;20440;-88
2023/01/27 00:33:55;;;;;;;28.03;16.37;;;;;;;41.80;38.37;100767.25;6184708;23;20426;-90
2023/01/27 00:36:22;;;;;;;33.27;15.40;;;;;;;41.75;38.40;100753.84;6184357;23;20432;-88
2023/01/27 00:38:48;;;;;;;22.43;14.57;;;;;;;41.90;38.14;100749.69;6182572;23;20404;-91
2023/01/27 00:41:18;;;;;;;28.43;16.87;;;;;;;41.85;38.13;100742.50;6182586;23;20388;-88
2023/01/27 00:43:51;;;;;;;26.43;15.60;;;;;;;41.65;38.64;100737.88;6158316;23;20837;-87
2023/01/27 00:46:19;;;;;;;28.57;15.23;;;;;;;41.55;38.98;100725.47;6152192;23;20467;-90
2023/01/27 00:48:45;;;;;;;23.07;15.00;;;;;;;41.50;38.80;100720.25;6158264;23;20404;-90
2023/01/27 00:51:26;;;;;;;19.50;12.87;;;;;;;41.64;38.54;100719.16;6191078;23;20380;-91
2023/01/27 00:53:58;;;;;;;26.97;16.33;;;;;;;41.66;38.60;100723.13;6197071;23;20384;-91
2023/01/27 00:56:24;;;;;;;29.60;17.50;;;;;;;41.58;38.45;100719.38;6182065;23;20460;-89
2023/01/27 00:58:50;;;;;;;28.70;15.40;;;;;;;41.73;38.68;100719.88;6157997;23;20408;-86
2023/01/27 01:01:16;;;;;;;27.47;14.83;;;;;;;41.62;38.46;100711.34;6182189;23;20733;-88
2023/01/27 01:03:43;;;;;;;23.93;15.47;;;;;;;41.60;38.55;100708.94;6182568;23;20591;-91
2023/01/27 01:06:15;;;;;;;32.00;18.70;;;;;;;41.68;38.54;100709.19;6157717;23;20387;-91
2023/01/27 01:08:42;;;;;;;27.53;15.63;;;;;;;41.71;38.24;100712.03;6158492;23;20412;-92
2023/01/27 01:11:12;;;;;;;23.43;16.83;;;;;;;41.80;37.86;100718.22;6160248;23;20974;-89
2023/01/27 01:13:42;;;;;;;20.50;15.20;;;;;;;41.87;37.81;100706.78;6186371;23;20439;-91
2023/01/27 01:16:13;;;;;;;25.37;13.53;;;;;;;41.87;37.94;100698.63;6159112;23;20439;-92
2023/01/27 01:18:42;;;;;;;28.53;18.33;;;;;;;41.69;38.13;100694.44;6158030;23;20491;-88
2023/01/27 01:21:27;;;;;;;25.87;14.10;;;;;;;41.89;37.92;100690.88;6161040;23;20373;-90
2023/01/27 01:23:53;;;;;;;26.07;14.53;;;;;;;41.48;38.43;100689.84;6154557;23;20420;-91
2023/01/27 01:26:19;;;;;;;22.07;14.77;;;;;;;41.66;38.18;100693.19;6179511;23;20178;-91
2023/01/27 01:28:46;;;;;;;22.47;13.20;;;;;;;41.68;38.20;100698.28;6179476;23;20393;-92
2023/01/27 01:31:17;;;;;;;25.47;17.17;;;;;;;41.67;38.50;100694.75;6154763;23;20182;-93
2023/01/27 01:33:43;;;;;;;22.00;15.50;;;;;;;41.78;38.14;100687.00;6155342;23;20429;-93
2023/01/27 01:36:12;;;;;;;23.23;14.07;;;;;;;41.82;38.20;100679.75;6179980;23;20460;-93
2023/01/27 01:38:38;;;;;;;23.43;15.37;;;;;;;41.71;38.64;100687.53;6179338;23;20391;-93
2023/01/27 01:41:06;;;;;;;16.63;13.67;;;;;;;41.75;38.34;100680.31;6179194;23;20472;-93
2023/01/27 01:43:32;;;;;;;24.40;14.77;;;;;;;41.67;37.96;100675.69;6154398;23;20396;-93
2023/01/27 01:45:59;;;;;;;29.07;16.47;;;;;;;41.67;38.19;100666.75;6179373;23;20467;-94
2023/01/27 01:48:53;;;;;;;21.40;14.47;;;;;;;41.68;38.07;100671.06;6153941;23;20785;-87
2023/01/27 01:51:39;;;;;;;18.57;13.57;;;;;;;41.40;38.10;100659.97;6155750;23;20389;-88
2023/01/27 01:54:26;;;;;;;26.67;13.73;;;;;;;41.32;38.49;100659.72;6179842;23;20401;-90
2023/01/27 01:57:18;;;;;;;22.90;14.70;;;;;;;41.44;38.15;100648.09;6153968;23;20734;-91
2023/01/27 02:00:12;;;;;;;25.23;14.80;;;;;;;41.34;38.02;100629.44;6193309;23;20416;-89
2023/01/27 02:02:39;;;;;;;22.90;16.03;;;;;;;41.48;38.26;100626.41;6165858;23;20720;-89
2023/01/27 02:05:37;;;;;;;22.17;15.17;;;;;;;41.49;38.18;100630.72;6154862;23;20377;-86
2023/01/27 02:08:38;;;;;;;39.70;15.23;;;;;;;41.52;38.15;100628.13;6152611;23;20432;-89
2023/01/27 02:11:09;;;;;;;23.93;14.17;;;;;;;41.62;38.22;100637.81;6164507;23;20389;-88
2023/01/27 02:13:36;;;;;;;25.20;16.90;;;;;;;41.58;37.88;100628.72;6161008;23;20392;-89
2023/01/27 02:20:09;;;;;;;34.43;16.13;;;;;;;41.39;38.42;100631.97;6181928;23;20863;-89
2023/01/27 02:23:12;;;;;;;20.80;16.07;;;;;;;41.54;38.39;100642.19;6103469;23;20408;-86
2023/01/27 02:25:38;;;;;;;23.80;14.57;;;;;;;41.51;38.43;100618.38;6085901;23;20383;-85
2023/01/27 02:28:21;;;;;;;25.73;14.37;;;;;;;41.34;38.59;100608.47;6067096;23;20387;-89
2023/01/27 02:31:04;;;;;;;29.73;14.57;;;;;;;41.56;37.89;100626.34;6098471;23;20390;-86
2023/01/27 02:33:30;;;;;;;31.87;17.40;;;;;;;41.44;38.77;100612.69;6070608;23;20411;-89
2023/01/27 02:36:09;;;;;;;20.20;15.20;;;;;;;41.35;38.54;100611.97;6109576;23;20502;-85
2023/01/27 02:39:07;;;;;;;20.50;13.10;;;;;;;41.52;38.64;100630.06;6107203;23;20867;-88
2023/01/27 02:41:42;;;;;;;22.43;14.33;;;;;;;41.63;38.36;100620.34;6095153;23;20375;-90
2023/01/27 02:44:12;;;;;;;26.63;15.40;;;;;;;41.61;38.34;100620.66;6094107;23;20485;-81
2023/01/27 02:46:44;;;;;;;21.33;15.90;;;;;;;41.47;38.11;100612.00;6086556;23;20390;-89
2023/01/27 02:49:25;;;;;;;21.87;15.17;;;;;;;41.50;38.20;100605.13;6108206;23;20393;-88
2023/01/27 02:51:57;;;;;;;21.60;16.60;;;;;;;41.48;38.14;100610.88;6102387;23;20391;-79
2023/01/27 02:54:42;;;;;;;18.93;14.60;;;;;;;41.41;38.04;100621.53;6097844;23;20414;-88
2023/01/27 02:57:36;;;;;;;25.37;14.00;;;;;;;41.13;38.45;100621.31;6101351;23;20410;-88
2023/01/27 03:00:12;;;;;;;27.07;14.17;;;;;;;41.34;38.15;100635.69;6102931;23;20386;-88
2023/01/27 03:02:49;;;;;;;23.90;16.20;;;;;;;41.34;37.92;100624.00;6103391;23;20395;-86
2023/01/27 03:05:40;;;;;;;24.60;14.60;;;;;;;41.51;37.98;100645.59;6108505;23;20452;-86
2023/01/27 03:08:09;;;;;;;33.60;16.57;;;;;;;41.43;38.06;100635.59;6102826;23;20455;-86
2023/01/27 03:11:01;;;;;;;18.30;13.20;;;;;;;41.37;37.96;100630.69;6108471;23;20391;-85
2023/01/27 03:13:35;;;;;;;24.43;14.20;;;;;;;41.45;37.64;100630.63;6071532;23;20418;-81
2023/01/27 03:19:06;;;;;;;20.33;14.73;;;;;;;41.36;37.75;100632.63;6135306;23;20466;-86
2023/01/27 03:22:02;;;;;;;20.13;13.50;;;;;;;41.35;37.76;100631.03;6115790;23;20930;-86
2023/01/27 03:27:42;;;;;;;21.60;13.83;;;;;;;41.29;38.18;100633.13;6132885;23;20389;-86
2023/01/27 03:30:13;;;;;;;18.80;13.87;;;;;;;41.45;38.12;100641.50;6140373;23;20358;-87
2023/01/27 03:32:45;;;;;;;25.33;13.80;;;;;;;41.52;37.64;100628.13;6082515;23;20889;-86
2023/01/27 03:35:15;;;;;;;19.63;15.80;;;;;;;41.48;38.25;100640.81;6107834;23;20430;-91
2023/01/27 03:46:22;;;;;;;17.13;14.40;;;;;;;41.33;38.30;100641.47;6140640;23;20385;-86
2023/01/27 03:48:58;;;;;;;17.17;13.20;;;;;;;41.38;38.09;100643.19;6108096;23;20958;-86
2023/01/27 03:51:32;;;;;;;33.67;16.00;;;;;;;41.54;38.23;100655.03;6140100;23;20432;-86
2023/01/27 03:54:04;;;;;;;25.20;13.50;;;;;;;41.45;38.10;100651.59;6135358;23;20382;-74
2023/01/27 03:56:36;;;;;;;20.20;13.80;;;;;;;41.37;37.95;100647.03;6135437;23;20422;-88
2023/01/27 03:59:05;;;;;;;22.93;13.97;;;;;;;41.41;37.90;100651.47;6108120;23;20414;-86
2023/01/27 04:08:24;;;;;;;25.23;15.20;;;;;;;41.46;38.23;100664.09;6140315;23;20386;-86
2023/01/27 04:11:53;;;;;;;27.13;14.87;;;;;;;41.42;38.16;100661.22;6123094;23;20390;-90
2023/01/27 04:13:35;;;;;;;26.40;15.90;;;;;;;41.51;37.80;100669.31;6125519;23;20382;-90
2023/01/27 04:16:01;;;;;;;28.23;14.83;;;;;;;41.57;37.55;100662.53;6123684;23;20779;-90
2023/01/27 04:18:27;;;;;;;22.30;13.90;;;;;;;41.45;37.81;100663.28;6099442;23;20438;-90
2023/01/27 04:20:53;;;;;;;22.23;13.80;;;;;;;41.49;38.05;100672.34;6122701;23;20237;-90
2023/01/27 04:23:19;;;;;;;29.17;16.10;;;;;;;41.52;37.59;100668.97;6124340;23;20200;-89
2023/01/27 04:25:46;;;;;;;18.70;14.63;;;;;;;41.58;37.84;100669.56;6098993;23;20599;-90
2023/01/27 04:28:12;;;;;;;18.60;13.20;;;;;;;41.57;37.70;100668.78;6100010;23;20417;-88
2023/01/27 04:30:38;;;;;;;21.03;13.87;;;;;;;41.55;37.87;100673.75;6099196;23;20397;-90
2023/01/27 04:33:04;;;;;;;27.87;16.37;;;;;;;41.50;37.76;100678.63;6099242;23;20386;-87
2023/01/27 04:35:30;;;;;;;25.73;15.40;;;;;;;41.61;37.76;100685.22;6099352;23;20178;-88
2023/01/27 04:37:59;;;;;;;24.27;12.90;;;;;;;41.53;37.58;100677.94;6099692;23;20390;-90
2023/01/27 04:40:25;;;;;;;24.10;12.60;;;;;;;41.46;37.77;100683.13;6099126;23;20397;-87
2023/01/27 04:42:53;;;;;;;43.27;18.47;;;;;;;41.39;38.00;100685.63;6123161;23;20390;-92
2023/01/27 04:45:19;;;;;;;24.33;14.30;;;;;;;41.50;37.76;100694.97;6125162;23;20386;-92
2023/01/27 04:47:45;;;;;;;23.50;13.10;;;;;;;41.45;37.73;100706.06;6101326;23;20640;-92
2023/01/27 04:50:12;;;;;;;19.60;13.80;;;;;;;41.26;37.57;100701.88;6101344;23;20390;-92
2023/01/27 04:52:38;;;;;;;23.10;15.40;;;;;;;41.23;38.46;100707.97;6100975;23;20154;-91
2023/01/27 04:55:06;;;;;;;22.30;13.43;;;;;;;41.40;38.03;100714.44;6101396;23;20429;-89
2023/01/27 04:57:32;;;;;;;26.17;15.73;;;;;;;41.44;37.83;100715.34;6100627;23;20154;-90
2023/01/27 04:59:57;;;;;;;22.83;14.73;;;;;;;41.47;37.48;100710.03;6101305;23;20396;-90
2023/01/27 05:02:25;;;;;;;18.27;12.80;;;;;;;41.54;37.61;100723.09;6101604;23;20158;-90
2023/01/27 05:04:51;;;;;;;20.73;14.70;;;;;;;41.61;37.46;100721.41;6126156;23;20650;-89
2023/01/27 05:07:18;;;;;;;28.20;13.67;;;;;;;41.50;37.95;100730.38;6125551;23;20449;-89
2023/01/27 05:09:44;;;;;;;22.77;14.57;;;;;;;41.51;38.02;100734.66;6102468;23;20445;-90
2023/01/27 05:12:10;;;;;;;159.93;94.10;;;;;;;41.46;37.64;100740.31;6124957;23;20389;-87
2023/01/27 05:14:41;;;;;;;119.30;79.67;;;;;;;41.54;37.69;100737.50;6100691;23;20630;-88
2023/01/27 05:17:09;;;;;;;37.93;28.70;;;;;;;41.44;37.63;100750.75;6100358;23;20200;-87
2023/01/27 05:19:35;;;;;;;28.33;20.40;;;;;;;41.50;37.70;100749.41;6102903;23;20389;-87
2023/01/27 05:22:23;;;;;;;27.83;17.87;;;;;;;41.34;38.16;100746.50;6101833;23;20428;-89
2023/01/27 05:25:14;;;;;;;22.63;15.70;;;;;;;41.46;38.06;100743.84;6131774;23;20157;-89
2023/01/27 05:31:18;;;;;;;25.20;17.00;;;;;;;41.47;37.99;100752.78;6141962;23;20373;-88
2023/01/27 05:33:45;;;;;;;24.33;16.37;;;;;;;41.42;37.98;100753.00;6108045;23;20393;-90
2023/01/27 05:36:19;;;;;;;29.67;18.30;;;;;;;41.47;37.97;100753.59;6135631;23;20453;-86
2023/01/27 05:38:47;;;;;;;25.87;15.83;;;;;;;41.36;38.38;100757.03;6109760;23;20442;-86
2023/01/27 05:41:16;;;;;;;26.53;15.70;;;;;;;41.32;38.00;100746.84;6129439;23;20496;-87
2023/01/27 05:43:48;;;;;;;19.63;14.47;;;;;;;41.30;38.50;100749.03;6074094;23;20397;-86
2023/01/27 05:46:37;;;;;;;31.87;15.53;;;;;;;41.47;37.82;100764.47;6140066;23;20382;-80
2023/01/27 05:49:04;;;;;;;28.03;13.50;;;;;;;41.46;37.99;100762.09;6115090;23;20444;-85
2023/01/27 05:51:44;;;;;;;25.33;15.07;;;;;;;41.52;37.97;100772.44;6116447;23;20445;-86
2023/01/27 05:54:14;;;;;;;30.03;15.83;;;;;;;41.53;37.64;100765.06;6125859;23;20443;-85
2023/01/27 05:56:43;;;;;;;25.10;15.20;;;;;;;41.51;37.98;100759.97;6083953;23;20434;-86
2023/01/27 05:59:37;;;;;;;29.07;15.90;;;;;;;41.54;37.94;100778.34;6114534;23;20386;-85
2023/01/27 06:02:10;;;;;;;29.73;17.20;;;;;;;41.77;37.21;100783.47;6121439;23;20382;-90
2023/01/27 06:04:43;;;;;;;30.30;16.40;;;;;;;41.79;37.35;100781.19;6128765;23;20405;-89
2023/01/27 06:07:11;;;;;;;19.23;14.23;;;;;;;41.78;37.54;100780.41;6124954;23;20417;-90
2023/01/27 06:09:47;;;;;;;27.57;15.27;;;;;;;41.69;37.79;100787.06;6090970;23;20398;-91
2023/01/27 06:12:17;;;;;;;23.40;15.67;;;;;;;41.50;37.56;100769.28;6110318;23;20417;-86
2023/01/27 07:57:07;;;;;;;39.60;17.00;;;;;;;41.84;37.80;100960.81;6143163;22;2025663;-87
2023/01/27 07:59:33;;;;;;;22.13;16.03;;;;;;;41.85;38.02;100965.91;6193931;23;20189;-82
2023/01/27 08:02:00;;;;;;;22.20;14.40;;;;;;;41.89;37.64;100960.63;6196404;23;20792;-83
2023/01/27 08:04:26;;;;;;;28.10;17.40;;;;;;;41.79;38.12;100963.72;6196502;23;20156;-83
2023/01/27 08:06:52;;;;;;;23.13;16.53;;;;;;;41.64;38.29;100969.72;6195807;23;20461;-83
2023/01/27 08:09:19;;;;;;;27.00;15.50;;;;;;;41.66;38.46;100964.75;6196576;23;20885;-84
2023/01/27 08:11:45;;;;;;;22.27;15.57;;;;;;;41.74;38.22;100972.06;6171482;23;20387;-81
2023/01/27 08:14:11;;;;;;;21.07;14.27;;;;;;;41.86;38.17;100977.59;6196290;23;20389;-83
2023/01/27 08:16:37;;;;;;;19.33;15.53;;;;;;;42.04;37.82;100975.56;6196155;23;20773;-83
2023/01/27 08:19:03;;;;;;;23.53;16.13;;;;;;;42.01;37.67;100981.69;6171314;23;20767;-84
2023/01/27 08:21:31;;;;;;;19.20;16.63;;;;;;;42.04;37.81;100983.75;6172256;23;20452;-83
2023/01/27 08:23:59;;;;;;;18.87;14.83;;;;;;;42.06;37.36;100989.66;6196726;23;20383;-83
2023/01/27 08:26:32;;;;;;;22.70;16.90;;;;;;;41.98;37.74;100993.25;6171130;23;20509;-84
2023/01/27 08:29:00;;;;;;;28.77;15.47;;;;;;;42.13;37.69;100981.75;6216690;23;20384;-83
2023/01/27 08:31:27;;;;;;;32.67;16.50;;;;;;;42.09;37.70;100989.78;6188769;23;20462;-85
2023/01/27 08:33:54;;;;;;;20.60;14.30;;;;;;;42.19;37.32;100985.91;6189144;23;20387;-84
2023/01/27 08:36:28;;;;;;;26.90;15.53;;;;;;;42.14;37.56;100977.91;6215336;23;20474;-84
2023/01/27 08:38:55;;;;;;;30.40;18.10;;;;;;;42.11;37.36;100986.72;6188358;23;20735;-85
2023/01/27 08:41:24;;;;;;;22.40;16.43;;;;;;;41.95;37.92;100994.72;6187788;23;20383;-83
2023/01/27 08:43:50;;;;;;;21.97;15.60;;;;;;;41.92;38.11;100983.66;6189484;23;20384;-78
2023/01/27 08:46:16;;;;;;;22.67;13.50;;;;;;;41.97;37.84;100978.81;6188371;23;20419;-82
2023/01/27 08:48:42;;;;;;;29.70;15.90;;;;;;;42.00;37.85;100978.16;6188871;23;20732;-79
2023/01/27 08:51:11;;;;;;;25.43;16.37;;;;;;;41.78;38.19;100982.00;6188698;23;20469;-81
2023/01/27 08:53:37;;;;;;;22.33;14.60;;;;;;;42.13;37.85;100976.31;6189062;23;20429;-80
2023/01/27 08:56:12;;;;;;;25.90;15.20;;;;;;;42.24;37.59;100979.47;6188323;23;20388;-82
2023/01/27 08:58:40;;;;;;;25.77;16.20;;;;;;;42.24;37.65;100982.97;6120933;23;20767;-82
2023/01/27 09:01:08;;;;;;;27.93;18.13;;;;;;;42.07;37.88;100975.72;6160478;23;20431;-83
2023/01/27 09:03:38;;;;;;;23.20;14.80;;;;;;;42.19;37.49;100974.22;6180694;23;20389;-83
2023/01/27 09:06:09;;;;;;;21.07;13.73;;;;;;;42.28;37.05;100975.72;6184590;23;20416;-82
2023/01/27 09:08:39;;;;;;;27.13;15.30;;;;;;;42.29;37.24;100971.84;6160272;23;20399;-83
2023/01/27 09:11:17;;;;;;;23.47;12.77;;;;;;;42.30;37.24;100970.75;6159117;23;20399;-83
2023/01/27 09:13:43;;;;;;;25.60;16.20;;;;;;;41.97;37.73;100965.19;6134447;23;20430;-85
2023/01/27 09:16:10;;;;;;;21.77;14.50;;;;;;;41.69;38.22;100962.16;6159167;23;20381;-80
2023/01/27 09:18:36;;;;;;;23.80;14.07;;;;;;;42.03;37.62;100960.34;6158347;23;20384;-79
2023/01/27 09:21:04;;;;;;;21.30;14.63;;;;;;;42.21;37.25;100961.03;6185048;23;20376;-79
2023/01/27 09:23:31;;;;;;;21.63;12.30;;;;;;;42.29;37.04;100957.44;6183308;23;20389;-78
2023/01/27 09:25:57;;;;;;;34.13;16.20;;;;;;;42.22;37.30;100968.88;6184300;23;20381;-79
2023/01/27 09:28:23;;;;;;;22.63;14.50;;;;;;;41.86;37.80;100972.16;6158736;23;20387;-82
2023/01/27 09:30:49;;;;;;;20.97;14.50;;;;;;;42.19;37.48;100964.09;6157603;23;20184;-81
2023/01/27 09:33:17;;;;;;;22.67;14.03;;;;;;;42.05;37.71;100960.81;6183661;23;20467;-83
2023/01/27 09:35:54;;;;;;;19.03;13.73;;;;;;;41.86;37.72;100951.16;6184294;23;20177;-84
2023/01/27 09:38:22;;;;;;;24.60;15.07;;;;;;;41.68;37.69;100955.13;6134324;23;20705;-79
2023/01/27 09:41:12;;;;;;;19.90;14.57;;;;;;;41.86;37.67;100945.72;6157227;23;20502;-79
2023/01/27 09:44:26;;;;;;;21.70;16.97;;;;;;;41.60;38.06;100943.13;6158468;23;20376;-80
2023/01/27 09:47:29;;;;;;;19.20;13.30;;;;;;;41.85;37.71;100933.22;6159020;23;20459;-79
2023/01/27 09:50:06;;;;;;;19.63;13.13;;;;;;;42.13;37.28;100944.41;6135725;23;20733;-78
2023/01/27 09:53:06;;;;;;;20.90;15.07;;;;;;;42.06;37.43;100952.31;6158354;23;20436;-83
2023/01/27 09:56:04;;;;;;;30.03;17.07;;;;;;;42.31;36.92;100945.06;6158857;23;20400;-88
2023/01/27 09:58:45;;;;;;;23.93;16.43;;;;;;;41.86;37.68;100939.47;6156102;23;20522;-86
2023/01/27 10:01:26;;;;;;;18.97;13.70;;;;;;;42.27;36.89;100946.88;6159553;23;20400;-87
2023/01/27 10:04:22;;;;;;;38.90;15.63;;;;;;;42.16;36.62;100940.22;6159080;23;20475;-85
2023/01/27 10:07:19;;;;;;;24.73;15.10;;;;;;;42.03;36.63;100942.06;6159054;23;20424;-86
2023/01/27 10:09:55;;;;;;;19.10;14.30;;;;;;;42.16;37.00;100926.59;6158844;23;20422;-79
2023/01/27 10:12:39;;;;;;;22.30;14.57;;;;;;;42.33;36.70;100920.19;6157758;23;20388;-83
2023/01/27 10:15:40;;;;;;;24.47;16.47;;;;;;;42.38;36.52;100922.72;6158444;23;20423;-87
2023/01/27 10:18:37;;;;;;;24.80;13.30;;;;;;;42.12;36.81;100923.72;6157902;23;20408;-86
2023/01/27 10:21:38;;;;;;;17.30;13.03;;;;;;;42.14;36.96;100916.00;6159210;23;20394;-86
2023/01/27 10:24:40;;;;;;;19.10;13.57;;;;;;;42.36;36.42;100909.41;6178331;23;20434;-88
2023/01/27 10:27:18;;;;;;;36.27;14.40;;;;;;;42.26;36.08;100907.09;6158005;23;20431;-86
2023/01/27 10:29:50;;;;;;;20.43;13.90;;;;;;;42.34;36.64;100906.22;6158147;23;20412;-86
2023/01/27 10:32:48;;;;;;;32.03;15.77;;;;;;;42.48;36.29;100921.47;6158263;23;20411;-88
2023/01/27 10:35:38;;;;;;;23.13;12.80;;;;;;;42.42;36.44;100901.00;6158875;23;20404;-89
2023/01/27 10:38:50;;;;;;;22.47;13.10;;;;;;;42.63;36.01;100904.50;6171856;23;20388;-78
2023/01/27 10:41:32;;;;;;;23.93;15.80;;;;;;;42.28;36.21;100907.56;6172581;23;20728;-79
2023/01/27 10:44:37;;;;;;;23.93;14.17;;;;;;;42.44;36.55;100893.31;6172525;23;20396;-79
2023/01/27 11:04:25;;;;;;;21.67;13.90;;;;;;;42.53;36.09;100872.19;6196688;22;20443;-80
2023/01/27 11:07:37;;;;;;;27.27;16.63;;;;;;;42.53;36.13;100883.88;6149768;23;20440;-82
2023/01/27 11:13:50;;;;;;;18.17;13.60;;;;;;;42.45;36.08;100878.53;6198953;23;20384;-81
2023/01/27 11:19:53;;;;;;;19.63;14.10;;;;;;;42.67;36.26;100863.72;6196823;23;20859;-88
2023/01/27 11:23:20;;;;;;;26.60;14.70;;;;;;;42.31;36.88;100852.38;6172251;23;20381;-95
2023/01/27 11:26:22;;;;;;;22.87;13.50;;;;;;;42.44;36.49;100852.41;6165651;23;20443;-94
2023/01/27 11:29:41;;;;;;;27.63;16.20;;;;;;;42.61;36.40;100865.88;6136160;23;20807;-93
2023/01/27 11:32:17;;;;;;;24.07;18.07;;;;;;;42.60;36.30;100853.34;6048615;23;20404;-94
2023/01/27 11:35:13;;;;;;;24.57;13.73;;;;;;;42.70;36.14;100835.75;6184472;23;20423;-95
2023/01/27 11:37:59;;;;;;;24.43;15.50;;;;;;;42.54;36.35;100841.03;6140481;23;20419;-95
2023/01/27 11:40:37;;;;;;;34.37;17.00;;;;;;;42.88;35.80;100840.66;6171703;23;20392;-93
2023/01/27 11:43:05;;;;;;;26.27;17.10;;;;;;;42.75;35.47;100825.41;6165011;23;20507;-93
2023/01/27 11:45:51;;;;;;;25.23;14.67;;;;;;;42.77;35.52;100809.50;6173511;23;20874;-93
2023/01/27 11:48:36;;;;;;;24.73;16.53;;;;;;;42.83;35.39;100816.31;6190965;23;20384;-93
2023/01/27 11:51:48;;;;;;;27.67;19.47;;;;;;;42.86;35.62;100817.56;6167070;23;20391;-94
2023/01/27 11:55:00;;;;;;;19.50;13.80;;;;;;;42.96;35.48;100811.63;6197751;23;20403;-95
2023/01/27 11:58:36;;;;;;;28.60;13.43;;;;;;;43.07;35.27;100785.50;6133182;23;20378;-93
2023/01/27 12:01:54;;;;;;;20.73;14.53;;;;;;;42.91;35.35;100792.78;6135733;23;20386;-95
2023/01/27 12:08:13;;;;;;;23.83;15.57;;;;;;;43.01;34.89;100783.34;6140003;23;20437;-95
2023/01/27 12:11:03;;;;;;;15.00;13.40;;;;;;;43.10;35.15;100763.00;6078392;23;20398;-96
2023/01/27 12:14:16;;;;;;;28.93;16.43;;;;;;;43.31;34.75;100771.00;6067662;23;20417;-95
2023/01/27 12:17:55;;;;;;;25.33;16.43;;;;;;;43.24;34.62;100762.59;6081007;23;20378;-94
2023/01/27 12:23:46;;;;;;;24.10;15.13;;;;;;;43.22;35.20;100747.69;6078608;23;20422;-93
2023/01/27 12:26:37;;;;;;;36.73;17.07;;;;;;;43.32;34.87;100742.56;6052220;23;20403;-96
2023/01/27 12:32:58;;;;;;;21.43;14.10;;;;;;;43.40;34.57;100719.00;6108332;23;20456;-95
2023/01/27 12:35:56;;;;;;;28.13;15.43;;;;;;;43.33;34.36;100725.03;6106806;23;20414;-95
2023/01/27 12:59:43;;;;;;;;;;;;;;;;;;;;;
2023/01/27 13:17:47;;;;;;;;;;;;;;;;;;;;;
2023/01/27 13:23:58;;;;;;;22.80;17.23;;;;;;;43.59;34.38;100691.84;5916141;23;20954;-96
2023/01/27 13:27:04;;;;;;;20.83;14.33;;;;;;;43.53;34.63;100687.78;5883971;24;20437;-94
2023/01/27 13:30:26;;;;;;;29.77;17.80;;;;;;;43.46;34.28;100687.56;5911453;24;20424;-96
2023/01/27 13:32:58;;;;;;;23.43;16.40;;;;;;;43.66;34.12;100669.38;5906901;24;20479;-94
2023/01/27 13:35:49;;;;;;;27.63;16.90;;;;;;;43.46;34.28;100673.91;5967414;23;20780;-93
2023/01/27 13:42:09;;;;;;;27.67;16.13;;;;;;;43.43;34.77;100648.09;6024678;23;20361;-96
2023/01/27 13:45:14;;;;;;;25.00;16.07;;;;;;;43.24;34.87;100647.16;5966650;24;20437;-93
2023/01/27 13:48:19;;;;;;;25.50;16.07;;;;;;;43.52;34.66;100644.41;5953480;23;20444;-94
2023/01/27 13:51:03;;;;;;;25.67;16.30;;;;;;;43.61;34.08;100640.38;6012456;23;20378;-94
2023/01/27 13:53:29;;;;;;;25.37;16.33;;;;;;;43.56;34.50;100631.63;6111912;23;20460;-92
2023/01/27 13:56:25;;;;;;;21.00;16.50;;;;;;;43.50;34.22;100633.84;6113808;23;20461;-94
2023/01/27 14:03:17;;;;;;;32.03;17.70;;;;;;;43.77;33.92;100632.19;6171474;23;20361;-95
2023/01/27 14:06:01;;;;;;;28.43;14.90;;;;;;;43.80;34.07;100626.03;6140241;23;20393;-94
2023/01/27 14:08:56;;;;;;;25.70;15.33;;;;;;;44.03;33.50;100625.41;6136440;23;20397;-93
2023/01/27 14:11:48;;;;;;;27.00;16.67;;;;;;;44.01;33.49;100625.75;6141864;23;20842;-93
2023/01/27 14:14:43;;;;;;;20.97;14.40;;;;;;;44.00;33.62;100612.44;6141113;23;20377;-93
2023/01/27 14:17:53;;;;;;;26.30;15.60;;;;;;;44.09;33.55;100599.41;6163298;23;20377;-93
2023/01/27 14:20:41;;;;;;;25.20;17.20;;;;;;;44.06;33.26;100606.34;6135887;23;20377;-93
2023/01/27 14:23:53;;;;;;;26.83;16.40;;;;;;;44.20;32.89;100608.66;6139605;23;20374;-94
2023/01/27 14:26:46;;;;;;;21.10;14.80;;;;;;;44.44;33.10;100607.59;6170003;23;20405;-94
2023/01/27 14:29:46;;;;;;;18.83;14.10;;;;;;;44.47;32.87;100580.34;6137763;23;20385;-91
2023/01/27 14:32:42;;;;;;;18.50;12.97;;;;;;;44.54;32.46;100601.56;6139345;23;20796;-94
2023/01/27 14:35:44;;;;;;;25.73;15.33;;;;;;;44.87;32.69;100594.84;6169217;23;20385;-94
2023/01/27 14:42:10;;;;;;;25.93;14.50;;;;;;;44.50;32.10;100595.22;6024131;23;20361;-94
2023/01/27 14:48:21;;;;;;;36.80;16.07;;;;;;;44.63;31.92;100599.47;6023923;23;20417;-94
2023/01/27 14:51:18;;;;;;;20.47;14.60;;;;;;;44.81;32.38;100613.47;5994416;23;20393;-95
2023/01/27 14:54:16;;;;;;;23.10;15.27;;;;;;;44.90;31.69;100600.38;5998219;23;20468;-88
2023/01/27 14:57:00;;;;;;;25.83;14.50;;;;;;;44.83;32.05;100603.00;5992523;23;20382;-95
2023/01/27 14:59:31;;;;;;;28.53;15.10;;;;;;;44.92;31.49;100603.53;5991828;23;20435;-91
2023/01/27 15:05:31;;;;;;;30.87;16.90;;;;;;;44.79;31.58;100599.38;6054041;23;20817;-95
2023/01/27 15:08:04;;;;;;;21.13;13.23;;;;;;;44.95;31.28;100602.84;6139837;23;20429;-95
2023/01/27 15:10:37;;;;;;;35.90;15.43;;;;;;;44.95;31.54;100600.09;6103178;23;20390;-95
2023/01/27 15:13:23;;;;;;;20.40;12.13;;;;;;;45.02;31.57;100600.25;6114138;23;20385;-95
2023/01/27 15:16:31;;;;;;;22.43;13.17;;;;;;;45.21;31.44;100607.66;6102691;23;20386;-91
2023/01/27 15:19:56;;;;;;;17.50;12.83;;;;;;;45.46;30.92;100607.31;6138616;23;20393;-87
2023/01/27 15:23:11;;;;;;;27.23;13.97;;;;;;;45.30;30.89;100585.50;6111946;23;20374;-93
2023/01/27 15:29:01;;;;;;;30.77;15.43;;;;;;;45.68;30.54;100592.84;6141680;23;20385;-96
2023/01/27 15:31:30;;;;;;;22.20;15.20;;;;;;;45.52;30.71;100597.66;6081778;23;20394;-84
2023/01/27 15:34:22;;;;;;;41.27;15.67;;;;;;;45.57;30.50;100602.03;6108277;23;20390;-95
2023/01/27 15:37:18;;;;;;;23.40;13.93;;;;;;;45.47;30.56;100587.00;6090138;23;20390;-95
2023/01/27 15:40:22;;;;;;;22.87;16.30;;;;;;;45.90;30.29;100606.88;6116247;23;20385;-95
2023/01/27 15:43:03;;;;;;;20.57;16.40;;;;;;;45.66;30.24;100595.13;6110313;23;20382;-95
2023/01/27 15:45:45;;;;;;;25.90;15.80;;;;;;;45.77;30.72;100609.03;6137176;23;20413;-95
2023/01/27 15:48:27;;;;;;;25.47;14.60;;;;;;;45.60;30.61;100596.59;6111175;23;20441;-95
2023/01/27 15:51:30;;;;;;;21.00;12.40;;;;;;;45.80;30.66;100586.41;6116653;23;20398;-94
2023/01/27 15:54:02;;;;;;;30.40;15.10;;;;;;;45.97;30.00;100591.34;6142082;23;20374;-84
2023/01/27 15:56:52;;;;;;;27.20;15.10;;;;;;;46.04;30.25;100585.97;6114863;23;20392;-85
2023/01/27 16:07:39;;;;;;;21.60;14.13;;;;;;;47.08;28.60;100603.75;6166815;23;20569;-90
2023/01/27 16:11:14;;;;;;;27.10;16.17;;;;;;;46.71;29.38;100601.78;6165313;23;20877;-92
2023/01/27 16:13:55;;;;;;;;;;;;;;;;;;;;;
2023/01/27 16:17:06;;;;;;;20.80;14.47;;;;;;;45.58;30.24;100593.44;6126326;23;20373;-83